^^
Datos históricos de la estación: Murcia-Puente Tocinos
Diario Informe para Mayo 21, 2019 Unidades:  Métrico    Ingés   Ambas
Diario Semanal Mensual Anual
  Máxima: Mínima: Promedio:
Temperatura: 28.3 °C 21.9 °C 25.1 °C
Punto de rocio: 22.5 °C 13.4 °C 19.9 °C
Humedad: 96% 40.4% 75%
Velocidad viento: 20.9km/h 0km/h 10.3km/h
Racha viento: 38.9km/h - -
Viento- - Este
Presión: 1018.0 hPa 1015.6 hPa -
Precipitación: 13.8 mm    
 
 
Tabla de datos para Mayo 21, 2019
Hora Temperatura Punto de rocio Presión Viento Velocidad viento Racha viento Humedad Intensidad lluvia(por hora) Nubes
00:04 25.9 °C 20.8 °C 1016.9 hPa NO 3.9 km/h 8 km/h 73.5% 0.0 mm
00:09 26 °C 20.7 °C 1016.9 hPa NO 4 km/h 8 km/h 73% 0.0 mm
00:14 26 °C 20.8 °C 1016.9 hPa NO 4.7 km/h 9.5 km/h 73% 0.0 mm
00:19 26 °C 20.8 °C 1016.9 hPa NO 4.7 km/h 9.7 km/h 72.9% 0.0 mm
00:24 26 °C 20.7 °C 1016.9 hPa NO 4.7 km/h 9.5 km/h 72.5% 0.0 mm
00:29 26 °C 20.6 °C 1016.9 hPa ONO 4.7 km/h 9.7 km/h 72.4% 0.0 mm
00:34 25.9 °C 20.7 °C 1017.0 hPa ONO 4.7 km/h 9.7 km/h 73% 0.0 mm
00:39 25.9 °C 20.7 °C 1017.0 hPa NO 4.5 km/h 9.5 km/h 73% 0.0 mm
00:44 25.9 °C 20.6 °C 1017.0 hPa NO 3.9 km/h 11.1 km/h 72.8% 0.0 mm
00:49 25.8 °C 20.4 °C 1017.1 hPa NO 4.3 km/h 11.3 km/h 72% 0.0 mm
00:54 25.8 °C 20.4 °C 1017.1 hPa ONO 5.8 km/h 8 km/h 72% 0.0 mm
00:59 25.8 °C 20.4 °C 1017.1 hPa ONO 5.5 km/h 10.3 km/h 72% 0.0 mm
01:04 25.8 °C 20.4 °C 1017.1 hPa NO 4.6 km/h 13 km/h 72% 0.0 mm
01:09 25.8 °C 20.4 °C 1017.1 hPa NO 5.2 km/h 12.9 km/h 72% 0.0 mm
01:14 25.8 °C 20.4 °C 1017.1 hPa NO 6.9 km/h 14.8 km/h 72% 0.0 mm
01:19 25.8 °C 20.4 °C 1017.1 hPa NO 7.3 km/h 14.5 km/h 72% 0.0 mm
01:24 25.8 °C 20.4 °C 1017.1 hPa NO 8.4 km/h 13 km/h 72% 0.0 mm
01:29 25.8 °C 20.4 °C 1017.1 hPa NO 8 km/h 13.7 km/h 72% 0.0 mm
01:34 25.8 °C 20.4 °C 1017.1 hPa NO 6.9 km/h 14.5 km/h 72% 0.0 mm
01:39 25.8 °C 20.3 °C 1017.1 hPa NO 7.3 km/h 14.5 km/h 72% 0.0 mm
01:44 25.7 °C 20.3 °C 1017.1 hPa NO 8.4 km/h 14.5 km/h 72% 0.0 mm
01:49 25.7 °C 20.3 °C 1017.1 hPa NO 8 km/h 12.9 km/h 72% 0.0 mm
01:54 25.7 °C 20.3 °C 1017.1 hPa NNO 6.9 km/h 11.3 km/h 72% 0.0 mm
01:59 25.7 °C 20.3 °C 1017.1 hPa NNO 6.4 km/h 11.3 km/h 72% 0.0 mm
02:04 25.8 °C 20.3 °C 1017.1 hPa NNE 5 km/h 11.1 km/h 72% 0.0 mm
02:09 25.7 °C 20.5 °C 1017.1 hPa NE 5.3 km/h 11.3 km/h 73% 0.3 mm
02:14 25.5 °C 20.8 °C 1017.1 hPa NE 6.5 km/h 13.7 km/h 75.2% 0.8 mm
02:19 25.2 °C 21.3 °C 1017.1 hPa NE 6.9 km/h 16.7 km/h 79.2% 0.8 mm
02:24 24.8 °C 21.6 °C 1017.1 hPa NE 8.4 km/h 16.1 km/h 82.4% 1.0 mm
02:29 24.6 °C 21.8 °C 1017.1 hPa NNE 8.6 km/h 17.2 km/h 84.5% 1.0 mm
02:34 24.4 °C 21.9 °C 1017.1 hPa NNE 9.5 km/h 17.7 km/h 86.2% 1.0 mm
02:39 24.3 °C 22 °C 1017.1 hPa NE 8.9 km/h 12.9 km/h 87% 1.0 mm
02:44 24.2 °C 22 °C 1017.1 hPa NE 6.9 km/h 9.7 km/h 87.7% 1.0 mm
02:49 24.2 °C 22.1 °C 1017.2 hPa NE 6.5 km/h 10 km/h 88% 1.0 mm
02:54 24.1 °C 22 °C 1017.2 hPa NE 5 km/h 10 km/h 88.2% 1.0 mm
02:59 24.1 °C 22.2 °C 1017.2 hPa NE 4.9 km/h 9.7 km/h 89% 1.0 mm
03:04 24.1 °C 22.2 °C 1017.2 hPa ENE 4.6 km/h 8.4 km/h 89% 1.5 mm
03:09 24.1 °C 22.1 °C 1017.0 hPa Este 4.3 km/h 8 km/h 89% 1.5 mm
03:14 24 °C 22.1 °C 1017.0 hPa Este 3.2 km/h 6.4 km/h 89% 1.2 mm
03:19 24 °C 22.1 °C 1017.0 hPa Este 2.5 km/h 5 km/h 89% 0.7 mm
03:24 24 °C 22.2 °C 1016.9 hPa Calm   5.6 km/h 89.7% 0.5 mm
03:29 24.1 °C 22.3 °C 1016.9 hPa NNO 0.7 km/h 7.4 km/h 90% 0.5 mm
03:34 24.1 °C 22.3 °C 1017.0 hPa NNO 2.9 km/h 8 km/h 90% 0.5 mm
03:39 24.1 °C 22.3 °C 1017.0 hPa NNO 3 km/h 6.4 km/h 90% 0.5 mm
03:44 24 °C 22.3 °C 1017.0 hPa NO 3.2 km/h 6.4 km/h 90% 0.5 mm
03:49 24 °C 22.2 °C 1017.0 hPa NO 3 km/h 5.8 km/h 90% 0.5 mm
03:54 23.9 °C 22.2 °C 1016.8 hPa NNO 2.2 km/h 6.4 km/h 90% 0.5 mm
03:59 23.9 °C 22.1 °C 1016.8 hPa NNO 2.4 km/h 5.8 km/h 90% 0.5 mm
04:04 23.8 °C 22.1 °C 1016.9 hPa NNO 2.9 km/h 6.4 km/h 90% 0.5 mm
04:09 23.8 °C 22.1 °C 1016.9 hPa NNO 2.2 km/h 3.2 km/h 90% 0.0 mm
04:14 23.9 °C 22.2 °C 1016.9 hPa Calm   7.4 km/h 90% 0.0 mm
04:19 23.9 °C 22.2 °C 1017.0 hPa Calm   8 km/h 90% 0.0 mm
04:24 23.9 °C 22.2 °C 1017.0 hPa Calm   7.6 km/h 90% 0.0 mm
04:29 23.9 °C 22.2 °C 1017.0 hPa ENE 0.7 km/h 8 km/h 90% 0.3 mm
04:34 23.9 °C 22.2 °C 1017.0 hPa NE 3.2 km/h 8 km/h 90.1% 0.3 mm
04:39 23.9 °C 22.2 °C 1016.9 hPa NE 3.2 km/h 8 km/h 90.6% 0.5 mm
04:44 23.8 °C 22.2 °C 1016.9 hPa NE 3.2 km/h 8 km/h 91% 0.8 mm
04:49 23.8 °C 22.2 °C 1016.9 hPa NE 2.5 km/h 3.9 km/h 91% 0.8 mm
04:54 23.8 °C 22.2 °C 1016.9 hPa Calm   5.6 km/h 91% 0.8 mm
04:59 23.8 °C 22.3 °C 1016.9 hPa North 0.6 km/h 5.8 km/h 91.6% 0.8 mm
05:04 23.8 °C 22.4 °C 1016.9 hPa NNE 2.2 km/h 12.2 km/h 91.8% 0.8 mm
05:09 23.7 °C 22.3 °C 1016.9 hPa NNE 3.4 km/h 18.5 km/h 91.8% 0.8 mm
05:14 23.5 °C 22 °C 1016.9 hPa NNE 7.6 km/h 24.5 km/h 91.5% 0.8 mm
05:19 23.2 °C 21.8 °C 1017.1 hPa NE 8.5 km/h 24.1 km/h 91.9% 1.1 mm
05:24 23.1 °C 21.8 °C 1017.1 hPa NNE 11.9 km/h 24.1 km/h 92.6% 1.3 mm
05:29 23.1 °C 21.9 °C 1017.1 hPa NNE 11.4 km/h 16.4 km/h 93% 1.3 mm
05:34 22.9 °C 21.8 °C 1017.1 hPa NNE 10 km/h 19 km/h 93.1% 1.5 mm
05:39 22.8 °C 21.8 °C 1017.0 hPa NNE 10.2 km/h 20.4 km/h 93.7% 1.6 mm
05:44 22.8 °C 21.7 °C 1017.0 hPa NNE 11.1 km/h 20.9 km/h 94% 1.5 mm
05:49 22.7 °C 21.7 °C 1017.0 hPa NNE 10.9 km/h 17.7 km/h 94% 1.5 mm
05:54 22.7 °C 21.7 °C 1017.0 hPa NNE 10 km/h 16.1 km/h 94% 1.8 mm
05:59 22.7 °C 21.7 °C 1017.0 hPa NNE 9.1 km/h 11.9 km/h 94% 2.1 mm
06:04 22.7 °C 21.8 °C 1017.0 hPa NNE 6.9 km/h 11.3 km/h 94.9% 2.1 mm
06:09 22.7 °C 21.8 °C 1017.0 hPa NNE 6.8 km/h 11.9 km/h 95% 2.3 mm
06:14 22.7 °C 21.8 °C 1017.0 hPa NNE 6.5 km/h 13.7 km/h 95% 2.3 mm
06:19 22.7 °C 21.8 °C 1017.0 hPa NNE 6.7 km/h 14.5 km/h 95% 2.6 mm
06:24 22.7 °C 21.8 °C 1016.9 hPa NNE 7.6 km/h 12.9 km/h 95% 2.3 mm
06:29 22.7 °C 21.8 °C 1016.9 hPa NNE 7.3 km/h 11.3 km/h 95% 2.5 mm
06:34 22.7 °C 21.9 °C 1016.9 hPa NNE 6.5 km/h 11.3 km/h 95% 3.4 mm
06:39 22.8 °C 21.9 °C 1016.9 hPa NNE 6.6 km/h 13 km/h 95% 3.6 mm
06:44 22.7 °C 21.8 °C 1016.9 hPa NNE 6.9 km/h 15.6 km/h 95% 3.6 mm
06:49 22.7 °C 21.8 °C 1017.0 hPa NNE 7.1 km/h 16.1 km/h 95% 3.6 mm
06:54 22.6 °C 21.8 °C 1017.0 hPa NE 7.6 km/h 33.5 km/h 95% 3.6 mm
06:59 22.6 °C 21.8 °C 1017.0 hPa NE 9.6 km/h 33.8 km/h 95% 3.3 mm
07:04 22.5 °C 21.7 °C 1017.1 hPa NE 14.8 km/h 27.8 km/h 95% 3.0 mm
07:09 22.3 °C 21.5 °C 1017.1 hPa NE 15.3 km/h 31.5 km/h 95% 3.0 mm
07:14 22.2 °C 21.3 °C 1017.1 hPa NE 17.2 km/h 32.2 km/h 95% 2.8 mm
07:19 22.2 °C 21.3 °C 1017.2 hPa NE 16.7 km/h 24.1 km/h 95% 2.5 mm
07:24 22.2 °C 21.3 °C 1017.2 hPa NE 14.8 km/h 25.1 km/h 95% 2.8 mm
07:29 22.1 °C 21.3 °C 1017.2 hPa NE 14.8 km/h 25.9 km/h 95% 2.6 mm
07:34 22.1 °C 21.3 °C 1017.4 hPa NE 14.8 km/h 24.1 km/h 95% 1.8 mm
07:39 22.1 °C 21.3 °C 1017.4 hPa NE 13.7 km/h 17.7 km/h 95% 1.5 mm
07:44 22 °C 21.1 °C 1017.4 hPa NE 10 km/h 16.1 km/h 95% 1.8 mm
07:49 21.9 °C 21.1 °C 1017.4 hPa NE 9.9 km/h 15.6 km/h 95% 1.8 mm
07:54 21.9 °C 21.1 °C 1017.3 hPa NE 9.5 km/h 16.1 km/h 95% 1.8 mm
07:59 21.9 °C 21.1 °C 1017.3 hPa NNE 8.8 km/h 14.5 km/h 95% 2.1 mm
08:04 22 °C 21.2 °C 1017.4 hPa NE 6.9 km/h 11.3 km/h 95% 2.1 mm
08:09 22.1 °C 21.3 °C 1017.4 hPa NE 6.8 km/h 11.3 km/h 95% 2.3 mm
08:14 22.2 °C 21.5 °C 1017.4 hPa NNE 6.5 km/h 11.3 km/h 95.8% 2.3 mm
08:19 22.3 °C 21.6 °C 1017.4 hPa NNE 6.3 km/h 11.9 km/h 96% 2.6 mm
08:24 22.3 °C 21.6 °C 1017.4 hPa NE 5.8 km/h 13 km/h 96% 2.6 mm
08:29 22.4 °C 21.7 °C 1017.4 hPa NE 6 km/h 12.9 km/h 96% 2.3 mm
08:34 22.5 °C 21.8 °C 1017.6 hPa NE 6.9 km/h 11.3 km/h 96% 2.3 mm
08:39 22.6 °C 21.9 °C 1017.6 hPa NE 6.9 km/h 15.6 km/h 96% 2.1 mm
08:44 22.7 °C 22 °C 1017.6 hPa NE 6.9 km/h 16.1 km/h 96% 1.8 mm
08:49 22.7 °C 22 °C 1017.6 hPa NE 7.3 km/h 19 km/h 96% 1.8 mm
08:54 22.6 °C 21.9 °C 1017.5 hPa NE 8.7 km/h 20.4 km/h 96% 1.6 mm
08:59 22.7 °C 22 °C 1017.5 hPa NE 9.9 km/h 22.5 km/h 96% 1.6 mm
09:04 22.6 °C 21.9 °C 1017.5 hPa NE 13 km/h 29.8 km/h 95.3% 1.3 mm
09:09 22.5 °C 21.7 °C 1017.3 hPa NE 14 km/h 34.3 km/h 95% 1.8 mm
09:14 22.4 °C 21.6 °C 1017.3 hPa NE 17.2 km/h 33.8 km/h 95% 1.8 mm
09:19 22.4 °C 21.6 °C 1017.4 hPa NE 16.7 km/h 24.1 km/h 95% 1.8 mm
09:24 22.4 °C 21.6 °C 1017.4 hPa NE 14.8 km/h 24.1 km/h 95% 1.5 mm
09:29 22.5 °C 21.6 °C 1017.4 hPa NE 14.1 km/h 20.9 km/h 95% 2.5 mm
09:34 22.5 °C 21.7 °C 1017.5 hPa NE 11.9 km/h 19.3 km/h 95% 2.8 mm
09:39 22.5 °C 21.7 °C 1017.5 hPa NE 11.3 km/h 16.1 km/h 95% 3.1 mm
09:44 22.6 °C 21.7 °C 1017.5 hPa NE 9.5 km/h 16.1 km/h 95% 2.6 mm
09:49 22.6 °C 21.8 °C 1017.6 hPa ENE 8.9 km/h 14.8 km/h 95% 2.6 mm
09:54 22.6 °C 21.8 °C 1017.6 hPa NE 6.9 km/h 14.5 km/h 95% 2.8 mm
09:59 22.7 °C 21.8 °C 1017.6 hPa ESE 6.8 km/h 11.3 km/h 95% 3.0 mm
10:04 22.7 °C 21.9 °C 1017.6 hPa ENE 6.5 km/h 11.3 km/h 95.1% 3.0 mm
10:09 22.8 °C 22.1 °C 1017.5 hPa ENE 5.8 km/h 9.7 km/h 95.8% 2.8 mm
10:14 22.8 °C 22 °C 1017.5 hPa NE 3.9 km/h 8 km/h 95.4% 2.3 mm
10:19 22.9 °C 22.1 °C 1017.5 hPa NNE 3.9 km/h 9.3 km/h 95.1% 2.3 mm
10:24 22.9 °C 22.1 °C 1017.5 hPa NE 3.9 km/h 9.7 km/h 95.3% 2.3 mm
10:29 23 °C 22.2 °C 1017.5 hPa NE 4 km/h 10 km/h 95.2% 2.0 mm
10:34 23.1 °C 22.3 °C 1017.5 hPa NNE 4.7 km/h 9.7 km/h 95% 1.3 mm
10:39 23.2 °C 22.3 °C 1017.4 hPa NNE 4.9 km/h 11.1 km/h 95% 1.0 mm
10:44 23.4 °C 22.5 °C 1017.4 hPa NE 5.8 km/h 19 km/h 95% 0.7 mm
10:49 23.5 °C 22.5 °C 1017.5 hPa NE 7 km/h 22.2 km/h 94.2% 0.7 mm
10:54 23.7 °C 22.5 °C 1017.5 hPa NE 11.1 km/h 22.5 km/h 92.7% 0.5 mm
10:59 23.9 °C 22.3 °C 1017.5 hPa NNE 11.8 km/h 27.8 km/h 90.5% 0.2 mm
11:04 24.1 °C 22.1 °C 1017.6 hPa NNE 13.7 km/h 27.4 km/h 88.4% 0.0 mm
11:09 24.2 °C 22 °C 1017.6 hPa NE 13.3 km/h 25.6 km/h 87.3% 0.0 mm
11:14 24.3 °C 21.7 °C 1017.6 hPa NNE 12.2 km/h 25.9 km/h 85.5% 0.0 mm
11:19 24.4 °C 21.5 °C 1017.7 hPa NE 13.4 km/h 31.7 km/h 84% 0.0 mm
11:24 24.6 °C 21.4 °C 1017.7 hPa NE 17.2 km/h 32.2 km/h 82.2% 0.0 mm
11:29 24.7 °C 21.4 °C 1017.7 hPa NE 17.6 km/h 30.6 km/h 82.1% 0.0 mm
11:34 24.6 °C 21.4 °C 1017.9 hPa NNE 19 km/h 31.7 km/h 82.7% 0.0 mm
11:39 24.4 °C 21.4 °C 1017.9 hPa NE 19.2 km/h 32.2 km/h 83.2% 0.0 mm
11:44 24.3 °C 21.5 °C 1017.9 hPa NNE 19.8 km/h 32.2 km/h 84.1% 0.0 mm
11:49 24.4 °C 21.7 °C 1017.9 hPa NE 18.9 km/h 27.4 km/h 85% 0.0 mm
11:54 24.6 °C 21.8 °C 1017.9 hPa NE 16.1 km/h 28.2 km/h 84.4% 0.0 mm
11:59 24.9 °C 21.8 °C 1017.9 hPa NE 16.1 km/h 27.4 km/h 83.2% 0.0 mm
12:04 25.1 °C 21.7 °C 1017.9 hPa NE 16.1 km/h 27.8 km/h 81.6% 0.0 mm
12:09 25.3 °C 21.7 °C 1017.8 hPa NE 16.2 km/h 33.3 km/h 80.4% 0.0 mm
12:14 25.5 °C 21.6 °C 1017.8 hPa NE 16.4 km/h 33.8 km/h 78.9% 0.0 mm
12:19 25.8 °C 21.4 °C 1017.8 hPa NE 17 km/h 35.2 km/h 76.7% 0.0 mm
12:24 25.9 °C 21.1 °C 1017.7 hPa NE 19 km/h 35.4 km/h 74.9% 0.0 mm
12:29 25.9 °C 20.9 °C 1017.7 hPa NE 19.2 km/h 32.2 km/h 74.1% 0.0 mm
12:34 26 °C 21 °C 1017.7 hPa NE 19.8 km/h 30.6 km/h 73.7% 0.0 mm
12:39 26.3 °C 20.9 °C 1017.5 hPa NE 19.8 km/h 30.6 km/h 72.3% 0.0 mm
12:44 26.3 °C 20.6 °C 1017.5 hPa NE 19.8 km/h 31.7 km/h 71% 0.0 mm
12:49 26.3 °C 20.6 °C 1017.5 hPa NE 19.2 km/h 32.2 km/h 70.9% 0.0 mm
12:54 26.4 °C 20.4 °C 1017.5 hPa NE 17.2 km/h 29.8 km/h 69.7% 0.0 mm
12:59 26.5 °C 20.4 °C 1017.5 hPa NE 17 km/h 30.6 km/h 69.2% 0.0 mm
13:04 26.8 °C 20.5 °C 1017.5 hPa ENE 16.4 km/h 29.6 km/h 68.3% 0.0 mm
13:09 26.9 °C 20.4 °C 1017.4 hPa NE 16.6 km/h 29.6 km/h 67.7% 0.0 mm
13:14 27 °C 20.2 °C 1017.4 hPa NE 17.2 km/h 30.9 km/h 66.5% 0.0 mm
13:19 26.8 °C 19.8 °C 1017.4 hPa NE 17.8 km/h 35.9 km/h 65.6% 0.0 mm
13:24 26.8 °C 20 °C 1017.4 hPa NE 19.8 km/h 35.4 km/h 66.6% 0.0 mm
13:29 26.8 °C 19.8 °C 1017.4 hPa NE 19.8 km/h 33.8 km/h 65.2% 0.0 mm
13:34 26.8 °C 19.6 °C 1017.4 hPa ENE 19.8 km/h 33.8 km/h 64.9% 0.0 mm
13:39 26.7 °C 19.7 °C 1017.3 hPa NE 19.4 km/h 29 km/h 65.4% 0.0 mm
13:44 26.7 °C 19.5 °C 1017.3 hPa NE 18 km/h 34.3 km/h 64.9% 0.0 mm
13:49 26.7 °C 19.6 °C 1017.3 hPa NE 18.5 km/h 33.8 km/h 65.2% 0.0 mm
13:54 26.6 °C 19.6 °C 1017.2 hPa NE 20.1 km/h 35.9 km/h 65.4% 0.0 mm
13:59 26.6 °C 19.5 °C 1017.2 hPa NE 19.8 km/h 35.4 km/h 65% 0.0 mm
14:04 26.7 °C 19.8 °C 1017.2 hPa NE 19 km/h 35.4 km/h 65.9% 0.0 mm
14:09 26.7 °C 19.6 °C 1017.1 hPa NE 17.5 km/h 28.2 km/h 65.2% 0.0 mm
14:14 26.6 °C 19.3 °C 1017.1 hPa NE 13 km/h 27.8 km/h 64.3% 0.0 mm
14:19 26.7 °C 19.3 °C 1017.1 hPa NE 14 km/h 29.8 km/h 64.2% 0.0 mm
14:24 26.7 °C 18.9 °C 1017.1 hPa NE 17.2 km/h 30.6 km/h 62.3% 0.0 mm
14:29 26.8 °C 19.1 °C 1017.1 hPa NE 17.5 km/h 31.5 km/h 63% 0.0 mm
14:34 26.9 °C 19.2 °C 1017.2 hPa NE 18.4 km/h 32.2 km/h 62.7% 0.0 mm
14:39 26.8 °C 19.2 °C 1017.2 hPa NE 17.9 km/h 29.6 km/h 63% 0.0 mm
14:44 26.8 °C 19.3 °C 1017.2 hPa NE 16.4 km/h 29.8 km/h 63.6% 0.0 mm
14:49 26.8 °C 19.1 °C 1017.2 hPa NE 16.1 km/h 30.6 km/h 62.7% 0.0 mm
14:54 26.9 °C 19.2 °C 1017.1 hPa ENE 14.8 km/h 25.7 km/h 62.8% 0.0 mm
14:59 27.1 °C 19.5 °C 1017.1 hPa NE 14.1 km/h 24.1 km/h 63.3% 0.0 mm
15:04 27.2 °C 19.1 °C 1017.1 hPa NE 11.9 km/h 26.2 km/h 61.6% 0.0 mm
15:09 27.1 °C 18.7 °C 1017.0 hPa ENE 12.8 km/h 25.9 km/h 60.1% 0.0 mm
15:14 27.1 °C 18.3 °C 1017.0 hPa NE 15.6 km/h 25.9 km/h 58.8% 0.0 mm
15:19 27.2 °C 18.1 °C 1017.0 hPa NE 16 km/h 31.5 km/h 57.7% 0.0 mm
15:24 27.3 °C 18.2 °C 1016.8 hPa NE 17.2 km/h 33.3 km/h 57.6% 0.0 mm
15:29 27.4 °C 18.1 °C 1016.8 hPa NE 17.4 km/h 33.8 km/h 56.8% 0.0 mm
15:34 27.4 °C 18.5 °C 1016.8 hPa NE 18 km/h 33.5 km/h 58.1% 0.0 mm
15:39 27.6 °C 18.3 °C 1016.5 hPa NE 18 km/h 33.8 km/h 57.1% 0.0 mm
15:44 27.6 °C 17.8 °C 1016.5 hPa NE 18 km/h 33.8 km/h 55.1% 0.0 mm
15:49 27.7 °C 18.3 °C 1016.5 hPa NE 17.9 km/h 32.2 km/h 56.6% 0.0 mm
15:54 27.6 °C 18.5 °C 1016.3 hPa NE 17.2 km/h 33.3 km/h 57.8% 0.0 mm
15:59 27.6 °C 17.9 °C 1016.3 hPa NE 18.2 km/h 35.9 km/h 55.6% 0.0 mm
16:04 27.7 °C 18.2 °C 1016.3 hPa NE 20.9 km/h 35.4 km/h 56.4% 0.0 mm
16:09 27.8 °C 18.5 °C 1016.1 hPa NE 19.8 km/h 32.3 km/h 57% 0.0 mm
16:14 27.8 °C 18.4 °C 1016.1 hPa ENE 16.1 km/h 33.8 km/h 56.8% 0.0 mm
16:19 27.7 °C 18.5 °C 1016.1 hPa NE 16.2 km/h 33.8 km/h 57.5% 0.0 mm
16:24 27.7 °C 18.2 °C 1016.0 hPa NE 16.4 km/h 29.1 km/h 56.2% 0.0 mm
16:29 27.8 °C 17.3 °C 1016.0 hPa NE 16.6 km/h 38.9 km/h 52.8% 0.0 mm
16:34 27.9 °C 16.9 °C 1016.0 hPa NE 17.2 km/h 38.9 km/h 51.2% 0.0 mm
16:39 28.1 °C 17.5 °C 1015.9 hPa NE 17.2 km/h 30.6 km/h 52.8% 0.0 mm
16:44 27.9 °C 17.7 °C 1015.9 hPa ENE 17.2 km/h 30.6 km/h 53.9% 0.0 mm
16:49 28 °C 17.7 °C 1015.9 hPa ENE 16.8 km/h 30.6 km/h 53.6% 0.0 mm
16:54 27.9 °C 17.4 °C 1015.9 hPa ENE 15.6 km/h 33.5 km/h 53% 0.0 mm
16:59 27.8 °C 17 °C 1015.9 hPa ENE 16 km/h 37 km/h 51.8% 0.0 mm
17:04 27.8 °C 15.8 °C 1015.9 hPa NE 17.2 km/h 37 km/h 48.1% 0.0 mm
17:09 27.8 °C 15.3 °C 1015.8 hPa ENE 17.6 km/h 37 km/h 46.3% 0.0 mm
17:14 28.1 °C 13.9 °C 1015.8 hPa ENE 19 km/h 34.3 km/h 41.9% 0.0 mm
17:19 28.1 °C 13.4 °C 1015.8 hPa ENE 17.9 km/h 33.8 km/h 40.4% 0.0 mm
17:24 28.3 °C 13.8 °C 1015.7 hPa NE 14 km/h 29.1 km/h 41% 0.0 mm
17:29 28.2 °C 14.4 °C 1015.7 hPa NE 14 km/h 29.6 km/h 42.9% 0.0 mm
17:34 28.2 °C 14.5 °C 1015.9 hPa ENE 14 km/h 29.6 km/h 43.3% 0.0 mm
17:39 28.1 °C 14.6 °C 1015.9 hPa NE 14 km/h 29 km/h 43.6% 0.0 mm
17:44 27.9 °C 14.6 °C 1015.9 hPa NE 14 km/h 27.8 km/h 44.2% 0.0 mm
17:49 28.1 °C 14.8 °C 1015.9 hPa NE 14.9 km/h 29.8 km/h 44.2% 0.0 mm
17:54 28 °C 15.1 °C 1015.9 hPa ENE 18 km/h 30.6 km/h 45.4% 0.0 mm
17:59 27.9 °C 15.6 °C 1015.9 hPa ENE 17.8 km/h 30.6 km/h 47% 0.0 mm
18:04 27.8 °C 15.3 °C 1015.9 hPa NE 17.2 km/h 30.6 km/h 46.3% 0.0 mm
18:09 27.8 °C 15.3 °C 1015.9 hPa NE 16.8 km/h 30.6 km/h 46.5% 0.0 mm
18:14 27.8 °C 15.3 °C 1015.9 hPa NE 15.6 km/h 28.2 km/h 46.8% 0.0 mm
18:19 27.7 °C 15.6 °C 1015.9 hPa NE 15.4 km/h 27.4 km/h 47.8% 0.0 mm
18:24 27.6 °C 15.8 °C 1015.7 hPa NE 14.8 km/h 29.6 km/h 48.6% 0.0 mm
18:29 27.4 °C 15.9 °C 1015.7 hPa ENE 15.1 km/h 29.6 km/h 49.6% 0.0 mm
18:34 27.4 °C 15.9 °C 1015.7 hPa NE 16.1 km/h 29 km/h 49.5% 0.0 mm
18:39 27.3 °C 16 °C 1015.7 hPa NE 16.1 km/h 25.7 km/h 50% 0.0 mm
18:44 27.4 °C 16.3 °C 1015.7 hPa NE 16.1 km/h 25.9 km/h 50.7% 0.0 mm
18:49 27.3 °C 16.5 °C 1015.7 hPa ENE 16.1 km/h 34.3 km/h 51.5% 0.0 mm
18:54 27.2 °C 16 °C 1015.6 hPa NE 16.1 km/h 33.8 km/h 50.4% 0.0 mm
18:59 27.2 °C 16.5 °C 1015.6 hPa ENE 15.8 km/h 30.6 km/h 51.9% 0.0 mm
19:04 27.2 °C 16.9 °C 1015.6 hPa NE 14.8 km/h 30.6 km/h 53.4% 0.0 mm
19:09 27.1 °C 17.2 °C 1015.6 hPa ENE 15 km/h 29 km/h 54.9% 0.0 mm
19:14 26.9 °C 17.4 °C 1015.6 hPa NE 15.6 km/h 25.7 km/h 56.1% 0.0 mm
19:19 26.8 °C 17.5 °C 1015.8 hPa NE 14.8 km/h 22.5 km/h 56.9% 0.0 mm
19:24 26.7 °C 17.5 °C 1015.8 hPa NE 12.2 km/h 22.5 km/h 57% 0.0 mm
19:29 26.6 °C 17.4 °C 1015.8 hPa ENE 12 km/h 22.5 km/h 57% 0.0 mm
19:34 26.4 °C 17.3 °C 1015.9 hPa NE 11.1 km/h 20.9 km/h 57.3% 0.0 mm
19:39 26.3 °C 17.5 °C 1015.9 hPa NE 11.1 km/h 20.9 km/h 58.3% 0.0 mm
19:44 26.3 °C 17.6 °C 1015.9 hPa NE 11.1 km/h 19.3 km/h 59% 0.0 mm
19:49 26.2 °C 17.6 °C 1016.0 hPa NE 11.1 km/h 20.9 km/h 59% 0.0 mm
19:54 26.2 °C 17.5 °C 1016.0 hPa NE 11.1 km/h 20.9 km/h 59% 0.0 mm
19:59 26.1 °C 17.4 °C 1016.0 hPa NE 10.9 km/h 17.7 km/h 59% 0.0 mm
20:04 26 °C 17.5 °C 1016.3 hPa NE 10.3 km/h 16.7 km/h 59.5% 0.0 mm
20:09 25.9 °C 17.6 °C 1016.3 hPa NE 10.1 km/h 16.1 km/h 60% 0.0 mm
20:14 25.9 °C 17.5 °C 1016.3 hPa NE 9.5 km/h 18.5 km/h 60% 0.0 mm
20:19 25.8 °C 17.6 °C 1016.6 hPa NE 9.5 km/h 19.3 km/h 60.6% 0.0 mm
20:24 25.8 °C 17.7 °C 1016.6 hPa NE 9.5 km/h 18.5 km/h 61% 0.0 mm
20:29 25.7 °C 17.9 °C 1016.6 hPa ENE 9.3 km/h 19.3 km/h 61.9% 0.0 mm
20:34 25.7 °C 17.9 °C 1016.6 hPa NE 8.7 km/h 16.1 km/h 62.1% 0.0 mm
20:39 25.6 °C 18.1 °C 1016.6 hPa NE 8.3 km/h 14.5 km/h 63% 0.0 mm
20:44 25.5 °C 18.1 °C 1016.6 hPa NE 6.9 km/h 15.6 km/h 63.7% 0.0 mm
20:49 25.4 °C 18.2 °C 1016.6 hPa ENE 7.3 km/h 16.4 km/h 64.6% 0.0 mm
20:54 25.3 °C 18.2 °C 1016.0 hPa NNE 8.7 km/h 16.7 km/h 65% 0.0 mm
20:59 25.3 °C 18.2 °C 1016.0 hPa NE 7.7 km/h 12.9 km/h 65% 0.0 mm
21:04 25.2 °C 18.2 °C 1016.7 hPa NE 5 km/h 13.7 km/h 65.1% 0.0 mm
21:09 25.2 °C 18.3 °C 1016.7 hPa ENE 5.8 km/h 16.7 km/h 65.8% 0.0 mm
21:14 25.2 °C 18.4 °C 1016.7 hPa NE 8.7 km/h 16.1 km/h 66% 0.0 mm
21:19 25.2 °C 18.4 °C 1016.7 hPa NE 8.2 km/h 11.3 km/h 66% 0.0 mm
21:24 25.1 °C 18.3 °C 1016.7 hPa NE 6.5 km/h 11.9 km/h 66% 0.0 mm
21:29 25.1 °C 18.4 °C 1016.7 hPa NE 6.5 km/h 11.9 km/h 66.5% 0.0 mm
21:34 25.1 °C 18.6 °C 1016.8 hPa NE 6.5 km/h 11.3 km/h 67% 0.0 mm
21:39 25 °C 18.5 °C 1016.8 hPa NE 6.5 km/h 11.3 km/h 67% 0.0 mm
21:44 25 °C 18.4 °C 1016.8 hPa ENE 6.5 km/h 9.7 km/h 67% 0.0 mm
21:49 25 °C 18.6 °C 1017.1 hPa NE 6 km/h 8 km/h 68% 0.0 mm
21:54 24.9 °C 18.6 °C 1017.1 hPa NNE 4.7 km/h 8 km/h 68% 0.0 mm
21:59 24.9 °C 18.6 °C 1017.1 hPa North 4.4 km/h 8 km/h 68% 0.0 mm
22:04 24.9 °C 18.6 °C 1017.3 hPa NNE 3.9 km/h 9.5 km/h 68.1% 0.0 mm
22:09 24.8 °C 18.7 °C 1017.3 hPa North 4 km/h 9.7 km/h 69% 0.0 mm
22:14 24.8 °C 18.7 °C 1017.3 hPa NE 4.7 km/h 8 km/h 69% 0.0 mm
22:19 24.8 °C 18.7 °C 1017.3 hPa NE 4.7 km/h 8.7 km/h 69% 0.0 mm
22:24 24.7 °C 18.7 °C 1017.3 hPa NE 4.7 km/h 9.7 km/h 69.3% 0.0 mm
22:29 24.7 °C 18.8 °C 1017.3 hPa NE 4.7 km/h 9.7 km/h 70% 0.0 mm
22:34 24.7 °C 18.8 °C 1017.4 hPa NE 5 km/h 8 km/h 70% 0.0 mm
22:39 24.7 °C 18.8 °C 1017.4 hPa NE 4.7 km/h 8 km/h 70% 0.0 mm
22:44 24.6 °C 18.9 °C 1017.4 hPa NE 3.9 km/h 8 km/h 70.4% 0.0 mm
22:49 24.6 °C 19 °C 1017.6 hPa NE 4.1 km/h 9.5 km/h 71% 0.0 mm
22:54 24.6 °C 19 °C 1017.6 hPa NNE 5 km/h 9.7 km/h 71% 0.0 mm
22:59 24.6 °C 19.1 °C 1017.6 hPa NNE 4.7 km/h 8 km/h 71.6% 0.0 mm
23:04 24.4 °C 19.1 °C 1017.8 hPa North 3.9 km/h 8 km/h 72% 0.0 mm
23:09 24.4 °C 19 °C 1017.8 hPa North 3.5 km/h 8 km/h 72% 0.0 mm
23:14 24.3 °C 19 °C 1017.8 hPa NNE 2.2 km/h 8.4 km/h 72.1% 0.0 mm
23:19 24.3 °C 19.2 °C 1017.8 hPa NNO 2.4 km/h 8 km/h 73% 0.0 mm
23:24 24.3 °C 19.1 °C 1017.8 hPa NO 2.9 km/h   72.5% 0.0 mm
23:29 24.3 °C 18.9 °C 1017.8 hPa NO 2.2 km/h   72% 0.0 mm
23:34 24.3 °C 18.9 °C 1018.0 hPa Calm     72% 0.0 mm
23:39 24.4 °C 19 °C 1018.0 hPa Calm     72% 0.0 mm
23:44 24.4 °C 19 °C 1018.0 hPa Calm     72% 0.0 mm
23:49 24.4 °C 19 °C 1018.0 hPa ONO 0.5 km/h 7.4 km/h 71.9% 0.0 mm
23:54 24.4 °C 18.9 °C 1017.9 hPa ONO 2.2 km/h 8 km/h 71.4% 0.0 mm
23:59 24.4 °C 18.9 °C 1017.9 hPa OSO 2.4 km/h 7.4 km/h 71.3% 0.0 mm
Murcia-Puente Tocinos, España
Compliments of Weather Underground - 2.75 mb

La estación de MeteoMurcia.com, publica sus datos en los siguientes proyectos:

Weather Underground PWS IMURCIAP2 Meteoclimatic www.awekas.at

W3Counter
Web Analytics